CET,Max TemperatureF,Mean TemperatureF,Min TemperatureF,Max Dew PointF,MeanDew PointF,Min DewpointF,Max Humidity, Mean Humidity, Min Humidity, Max Sea Level PressureIn, Mean Sea Level PressureIn, Min Sea Level PressureIn, Max VisibilityMiles, Mean VisibilityMiles, Min VisibilityMiles, Max Wind SpeedMPH, Mean Wind SpeedMPH, Max Gust SpeedMPH,PrecipitationIn, CloudCover, Events, WindDirDegrees
2012-12-1,44,39,34,39,37,34,100,92,78,29.88,29.81,29.71,12,6,2,18,9,,0.28,5,Rain,219
2012-12-2,42,38,33,37,35,32,100,87,75,29.96,29.84,29.71,16,6,3,20,8,31,0.08,3,Rain,307
2012-12-3,46,39,32,45,35,32,100,89,68,29.95,29.71,29.53,19,6,2,22,11,,0.08,5,Rain-Snow,213
2012-12-4,44,40,33,41,36,32,93,79,63,29.53,29.45,29.39,19,8,2,26,15,,0.12,3,Rain,291
2012-12-5,39,34,30,34,31,25,100,86,65,29.74,29.61,29.53,19,7,2,17,5,30,0.08,4,Rain-Snow-Thunderstorm,264
2012-12-6,38,33,28,34,29,23,100,84,60,29.98,29.88,29.74,19,7,3,18,9,,0.00,3,Rain-Snow-Thunderstorm,219
2012-12-7,33,32,32,32,31,28,100,91,75,29.89,29.56,29.42,14,5,1,26,18,,0.16,7,Rain-Snow,130
2012-12-8,36,28,21,34,27,21,100,90,76,30.22,30.13,29.89,9,5,0,15,6,,0.02,5,Fog-Rain,214
2012-12-9,47,40,34,43,39,34,100,85,66,30.13,29.86,29.68,14,6,1,29,17,41,0.04,5,Rain,264
2012-12-10,40,36,32,37,32,25,87,76,55,30.18,29.93,29.68,19,7,4,24,17,37,0.02,3,Rain,354
2012-12-11,37,32,27,32,29,23,100,84,60,30.36,30.29,30.21,18,7,3,13,7,,0.02,2,Rain-Snow,310
2012-12-12,41,35,29,36,32,27,100,85,67,30.23,30.09,29.98,17,6,2,20,11,,0.08,4,Rain-Snow,252
2012-12-13,32,29,26,28,25,23,87,80,68,29.98,29.80,29.65,15,8,6,10,8,,0.00,5,,130
2012-12-14,48,38,28,46,38,28,100,91,79,29.66,29.36,29.03,19,5,1,24,13,34,0.28,5,Fog-Rain,142
2012-12-15,48,46,43,45,43,41,93,86,77,29.49,29.35,29.12,18,7,6,22,17,,0.02,4,Rain,194
2012-12-16,46,42,39,45,43,37,100,92,87,29.61,29.55,29.47,17,7,4,16,12,,0.03,5,Rain,202
2012-12-17,46,42,38,45,42,39,100,94,87,29.67,29.58,29.53,12,5,3,12,9,,0.12,5,Rain,194
2012-12-18,44,40,36,43,41,36,100,96,93,30.09,29.89,29.68,6,3,0,9,6,,0.01,5,Fog-Rain,190
2012-12-19,43,40,37,43,40,39,100,95,85,30.21,30.16,30.09,4,2,0,14,5,,0.00,6,Fog,119
2012-12-20,39,38,37,37,35,32,93,88,67,30.12,29.88,29.71,12,5,3,20,16,31,0.08,6,Rain,114
2012-12-21,46,41,36,45,40,35,100,98,92,29.92,29.80,29.71,6,2,0,18,11,,0.01,7,Fog-Rain-Snow,138
2012-12-22,46,44,43,46,43,43,100,95,92,29.96,29.80,29.53,8,4,1,17,10,,0.24,7,Rain,175
2012-12-23,53,48,44,52,50,46,100,92,82,29.74,29.60,29.50,11,6,2,31,21,40,0.04,4,Rain,242
2012-12-24,53,50,46,50,46,44,100,89,73,29.74,29.57,29.39,11,6,2,32,14,46,0.08,5,Rain,200
2012-12-25,50,47,44,48,44,41,100,89,68,29.50,29.41,29.30,17,6,3,29,13,44,0.08,5,Rain,218
2012-12-26,48,43,38,46,42,37,100,87,75,29.71,29.62,29.47,16,7,4,26,16,,0.04,4,Rain,229
2012-12-27,47,44,41,46,42,37,100,86,74,30.01,29.61,29.47,11,6,5,23,16,37,0.03,4,Rain,253
2012-12-28,50,44,37,50,41,34,100,90,78,30.20,30.10,30.01,17,6,2,20,10,,0.08,6,Rain,156
2012-12-29,53,50,47,50,46,43,100,81,61,30.01,29.78,29.62,16,6,3,31,19,37,0.00,5,Rain,193
2012-12-30,50,46,42,45,40,37,87,78,64,29.90,29.79,29.68,19,7,6,30,22,43,0.01,3,Rain,225
2012-12-31,50,48,47,46,44,43,93,84,70,29.89,29.72,29.50,15,7,5,29,26,41,0.04,6,Rain,207